Keystone, SD (57751)

5:27 PM MST on February 14, 2016 (GMT -0700)
copper oaks | | Change Station
CLOSE
Current Station
Personal Weather Station
Location: Rapid City, SD
Elevation: 4163 ft
Nearby Weather Stations

Elev 4163 ft 43.98 °N, 103.33 °W | Updated 0 second ago

Overcast
Overcast
37.8 °F
Feels Like 38 °F
N
0.0
Wind Variable Wind from NE
Gusts 0.0 mph

Today
High -- | Low -- °F
--% Chance of Precip.
Yesterday
High -- | Low -- °F
Precip. -- in
Pressure 29.86 in
Visibility 10.0 miles
Clouds Few 6500 ft
Windchill 38 °F
Dew Point 27 °F
Humidity 64%
Rainfall 0.00 in
Snow Depth Not available.
6:54 AM 5:21 PM
Waxing Crescent, 47% visible
METAR KRAP 142352Z 33008KT 10SM FEW065 04/M01 A2979 RMK AO2 SLP111 60000 T00391006 10067 20033 53005
Pressure 29.86 in
Visibility 10.0 miles
Clouds Few 6500 ft
Windchill 38 °F
Dew Point 27 °F
Humidity 64%
Rainfall 0.00 in
Snow Depth Not available.
6:54 AM 5:21 PM
Waxing Crescent, 47% visible
METAR KRAP 142352Z 33008KT 10SM FEW065 04/M01 A2979 RMK AO2 SLP111 60000 T00391006 10067 20033 53005

10-Day Weather Forecast

Almanac

Astronomy

Feb. 14, 2016 Rise Set
Actual Time
Civil Twilight
Nautical Twilight
Astronomical Twilight
Moon
Length of Visible Light
Length of Day
Tomorrow will be .
, % of the Moon is Illuminated

Today's Extremes

State Highs State Lows

Community

WunderPhotos

Upload Photos

1,892,944 photos uploaded!

WunderBlog® & News

Nearby

Air Quality

  Air Quality AQ Index Pollutant
Not available.

Snow Depth

Station Depth Elevation

Earthquake Activity

City Distance Mag. Time & Date
Minimum magnitude displayed is 2.5.

Coastal Water Temperatures

Place Temperature

Stations

Nearby Weather Stations

Station Location Temp. Windchill Dew Point Humidity Wind Precip. Elev Updated Type
                   

Watches & Warnings

There are currently no watches in effect.